createdAt,value
2022-09-27T00:00:06.310Z,992.05
2022-09-27T00:01:06.401Z,991.98
2022-09-27T00:02:06.435Z,991.97
2022-09-27T00:03:06.307Z,991.95
2022-09-27T00:04:06.266Z,991.96
2022-09-27T00:05:06.256Z,991.90
2022-09-27T00:06:06.247Z,991.93
2022-09-27T00:07:06.248Z,991.85
2022-09-27T00:08:06.221Z,991.88
2022-09-27T00:09:06.211Z,991.83
2022-09-27T00:10:06.199Z,991.77
2022-09-27T00:11:06.200Z,991.81
2022-09-27T00:12:06.179Z,991.76
2022-09-27T00:13:06.185Z,991.75
2022-09-27T00:14:06.156Z,991.70
2022-09-27T00:15:06.183Z,991.73
2022-09-27T00:16:06.206Z,991.75
2022-09-27T00:17:06.134Z,991.66
2022-09-27T00:18:06.160Z,991.62
2022-09-27T00:19:06.104Z,991.65
2022-09-27T00:20:06.090Z,991.63
2022-09-27T00:21:06.264Z,991.65
2022-09-27T00:22:06.071Z,991.66
2022-09-27T00:23:06.061Z,991.62
2022-09-27T00:24:06.048Z,991.63
2022-09-27T00:25:06.038Z,991.63
2022-09-27T00:26:06.210Z,991.61
2022-09-27T00:27:06.018Z,991.62
2022-09-27T00:28:06.003Z,991.60
2022-09-27T00:29:06.010Z,991.65
2022-09-27T00:30:05.983Z,991.62
2022-09-27T00:31:06.011Z,991.62
2022-09-27T00:32:05.968Z,991.62
2022-09-27T00:33:05.949Z,991.63
2022-09-27T00:34:05.942Z,991.63
2022-09-27T00:35:05.933Z,991.63
2022-09-27T00:36:05.927Z,991.56
2022-09-27T00:37:05.907Z,991.58
2022-09-27T00:38:05.893Z,991.60
2022-09-27T00:39:05.883Z,991.56
2022-09-27T00:40:05.871Z,991.53
2022-09-27T00:41:05.941Z,991.52
2022-09-27T00:42:05.849Z,991.49
2022-09-27T00:43:05.839Z,991.47
2022-09-27T00:44:05.831Z,991.47
2022-09-27T00:45:05.840Z,991.43
2022-09-27T00:46:05.872Z,991.45
2022-09-27T00:47:05.796Z,991.43
2022-09-27T00:48:05.784Z,991.43
2022-09-27T00:49:05.777Z,991.37
2022-09-27T00:50:05.769Z,991.37
2022-09-27T00:51:05.762Z,991.33
2022-09-27T00:52:05.794Z,991.36
2022-09-27T00:53:05.731Z,991.36
2022-09-27T00:54:05.719Z,991.34
2022-09-27T00:55:05.710Z,991.34
2022-09-27T00:56:05.708Z,991.35
2022-09-27T00:57:05.693Z,991.32
2022-09-27T00:58:05.675Z,991.33
2022-09-27T00:59:05.666Z,991.22
2022-09-27T01:00:05.668Z,991.25
2022-09-27T01:01:05.736Z,991.27
2022-09-27T01:02:05.700Z,991.21
2022-09-27T01:03:05.621Z,991.21
2022-09-27T01:04:05.611Z,991.19
2022-09-27T01:05:05.611Z,991.20
2022-09-27T01:06:05.588Z,991.19
2022-09-27T01:07:05.578Z,991.13
2022-09-27T01:08:05.566Z,991.11
2022-09-27T01:09:05.556Z,991.12
2022-09-27T01:10:05.553Z,991.12
2022-09-27T01:11:05.534Z,991.08
2022-09-27T01:12:05.525Z,991.04
2022-09-27T01:13:05.519Z,991.03
2022-09-27T01:14:05.501Z,991.04
2022-09-27T01:15:05.501Z,991.03
2022-09-27T01:16:05.539Z,991.01
2022-09-27T01:17:05.487Z,990.97
2022-09-27T01:18:05.458Z,991.00
2022-09-27T01:19:05.447Z,991.01
2022-09-27T01:20:05.446Z,990.98
2022-09-27T01:21:05.424Z,990.96
2022-09-27T01:22:05.413Z,990.98
2022-09-27T01:23:05.404Z,990.95
2022-09-27T01:24:05.390Z,990.91
2022-09-27T01:25:05.392Z,990.92
2022-09-27T01:26:05.368Z,990.95
2022-09-27T01:27:05.358Z,990.88
2022-09-27T01:28:05.347Z,990.89
2022-09-27T01:29:05.338Z,990.92
2022-09-27T01:30:05.385Z,990.91
2022-09-27T01:31:05.367Z,990.91
2022-09-27T01:32:05.302Z,990.88
2022-09-27T01:33:05.312Z,990.88
2022-09-27T01:34:05.279Z,990.87
2022-09-27T01:35:05.281Z,990.87
2022-09-27T01:36:05.260Z,990.87
2022-09-27T01:37:05.256Z,990.83
2022-09-27T01:38:05.236Z,990.81
2022-09-27T01:39:05.250Z,990.84
2022-09-27T01:40:05.217Z,990.82
2022-09-27T01:41:05.206Z,990.80
2022-09-27T01:42:05.193Z,990.80
2022-09-27T01:43:05.185Z,990.80
2022-09-27T01:44:05.173Z,990.77
2022-09-27T01:45:05.172Z,990.77
2022-09-27T01:46:05.199Z,990.77
2022-09-27T01:47:05.147Z,990.75
2022-09-27T01:48:05.128Z,990.76
2022-09-27T01:49:05.139Z,990.70
2022-09-27T01:50:05.124Z,990.73
2022-09-27T01:51:05.104Z,990.73
2022-09-27T01:52:05.086Z,990.72
2022-09-27T01:53:05.076Z,990.68
2022-09-27T01:54:05.063Z,990.65
2022-09-27T01:55:05.066Z,990.67
2022-09-27T01:56:05.043Z,990.56
2022-09-27T01:57:05.032Z,990.59
2022-09-27T01:58:05.018Z,990.51
2022-09-27T01:59:05.012Z,990.57
2022-09-27T02:00:05.048Z,990.55
2022-09-27T02:01:05.052Z,990.52
2022-09-27T02:02:04.975Z,990.55
2022-09-27T02:03:05.042Z,990.53
2022-09-27T02:04:04.955Z,990.52
2022-09-27T02:05:04.974Z,990.50
2022-09-27T02:06:04.931Z,990.49
2022-09-27T02:07:04.922Z,990.46
2022-09-27T02:08:04.911Z,990.43
2022-09-27T02:09:04.902Z,990.40
2022-09-27T02:10:04.908Z,990.40
2022-09-27T02:11:04.879Z,990.37
2022-09-27T02:12:04.868Z,990.32
2022-09-27T02:13:04.856Z,990.31
2022-09-27T02:14:04.858Z,990.31
2022-09-27T02:15:04.842Z,990.29
2022-09-27T02:16:04.942Z,990.28
2022-09-27T02:17:04.816Z,990.28
2022-09-27T02:18:04.800Z,990.24
2022-09-27T02:19:04.801Z,990.22
2022-09-27T02:20:04.780Z,990.22
2022-09-27T02:21:04.790Z,990.22
2022-09-27T02:22:04.760Z,990.16
2022-09-27T02:23:04.749Z,990.16
2022-09-27T02:24:04.762Z,990.17
2022-09-27T02:25:04.731Z,990.17
2022-09-27T02:26:04.713Z,990.15
2022-09-27T02:27:04.706Z,990.09
2022-09-27T02:28:04.691Z,990.11
2022-09-27T02:29:04.681Z,990.12
2022-09-27T02:30:04.715Z,990.12
2022-09-27T02:31:04.713Z,990.09
2022-09-27T02:32:04.647Z,990.05
2022-09-27T02:33:04.638Z,990.04
2022-09-27T02:34:04.626Z,990.04
2022-09-27T02:35:04.627Z,990.04
2022-09-27T02:36:04.604Z,990.01
2022-09-27T02:37:04.612Z,990.02
2022-09-27T02:38:04.582Z,990.03
2022-09-27T02:39:04.575Z,990.00
2022-09-27T02:40:04.572Z,990.00
2022-09-27T02:41:04.634Z,989.98
2022-09-27T02:42:04.539Z,989.97
2022-09-27T02:43:04.530Z,989.97
2022-09-27T02:44:04.516Z,989.97
2022-09-27T02:45:04.525Z,989.93
2022-09-27T02:46:04.543Z,989.96
2022-09-27T02:47:04.487Z,989.92
2022-09-27T02:48:04.476Z,989.90
2022-09-27T02:49:04.463Z,989.91
2022-09-27T02:50:04.466Z,989.88
2022-09-27T02:51:04.443Z,989.92
2022-09-27T02:52:04.429Z,989.85
2022-09-27T02:53:04.439Z,989.91
2022-09-27T02:54:04.406Z,989.89
2022-09-27T02:55:04.408Z,989.89
2022-09-27T02:56:04.384Z,989.87
2022-09-27T02:57:04.376Z,989.87
2022-09-27T02:58:04.364Z,989.85
2022-09-27T02:59:04.354Z,989.84
2022-09-27T03:00:04.351Z,989.83
2022-09-27T03:01:04.379Z,989.81
2022-09-27T03:02:04.427Z,989.83
2022-09-27T03:03:04.356Z,989.82
2022-09-27T03:04:04.301Z,989.79
2022-09-27T03:05:04.299Z,989.80
2022-09-27T03:06:04.281Z,989.79
2022-09-27T03:07:04.265Z,989.81
2022-09-27T03:08:04.253Z,989.80
2022-09-27T03:09:04.263Z,989.76
2022-09-27T03:10:04.242Z,989.82
2022-09-27T03:11:04.222Z,989.85
2022-09-27T03:12:04.212Z,989.78
2022-09-27T03:13:04.200Z,989.81
2022-09-27T03:14:09.175Z,989.78
2022-09-27T03:15:05.189Z,989.76
2022-09-27T03:16:04.166Z,989.79
2022-09-27T03:17:04.235Z,989.80
2022-09-27T03:18:04.145Z,989.77
2022-09-27T03:19:04.134Z,989.71
2022-09-27T03:20:04.189Z,989.76
2022-09-27T03:21:04.115Z,989.75
2022-09-27T03:22:04.103Z,989.74
2022-09-27T03:23:04.090Z,989.73
2022-09-27T03:24:04.083Z,989.72
2022-09-27T03:25:04.103Z,989.72
2022-09-27T03:26:04.056Z,989.72
2022-09-27T03:27:04.046Z,989.70
2022-09-27T03:28:04.040Z,989.68
2022-09-27T03:29:04.026Z,989.68
2022-09-27T03:30:04.021Z,989.67
2022-09-27T03:31:04.127Z,989.62
2022-09-27T03:32:03.998Z,989.59
2022-09-27T03:33:03.989Z,989.63
2022-09-27T03:34:03.969Z,989.58
2022-09-27T03:35:03.970Z,989.61
2022-09-27T03:36:03.948Z,989.54
2022-09-27T03:37:03.947Z,989.55
2022-09-27T03:38:03.926Z,989.56
2022-09-27T03:39:03.946Z,989.54
2022-09-27T03:40:03.919Z,989.59
2022-09-27T03:41:04.056Z,989.60
2022-09-27T03:42:03.885Z,989.54
2022-09-27T03:43:03.872Z,989.54
2022-09-27T03:44:03.861Z,989.55
2022-09-27T03:45:03.862Z,989.57
2022-09-27T03:46:03.929Z,989.53
2022-09-27T03:47:03.827Z,989.49
2022-09-27T03:48:03.818Z,989.47
2022-09-27T03:49:03.817Z,989.49
2022-09-27T03:50:03.794Z,989.52
2022-09-27T03:51:03.784Z,989.47
2022-09-27T03:52:03.777Z,989.51
2022-09-27T03:53:03.761Z,989.48
2022-09-27T03:54:03.760Z,989.49
2022-09-27T03:55:03.739Z,989.53
2022-09-27T03:56:03.730Z,989.53
2022-09-27T03:57:03.743Z,989.41
2022-09-27T03:58:03.707Z,989.38
2022-09-27T03:59:03.709Z,989.40
2022-09-27T04:00:03.686Z,989.38
2022-09-27T04:01:03.722Z,989.38
2022-09-27T04:02:03.715Z,989.32
2022-09-27T04:03:03.665Z,989.37
2022-09-27T04:04:07.569Z,989.30
2022-09-27T04:05:04.631Z,989.29
2022-09-27T04:06:03.622Z,989.32
2022-09-27T04:07:03.615Z,989.28
2022-09-27T04:08:03.599Z,989.29
2022-09-27T04:09:03.595Z,989.30
2022-09-27T04:10:03.579Z,989.32
2022-09-27T04:11:03.571Z,989.28
2022-09-27T04:12:03.556Z,989.26
2022-09-27T04:13:03.563Z,989.23
2022-09-27T04:14:03.555Z,989.25
2022-09-27T04:15:03.520Z,989.23
2022-09-27T04:16:03.529Z,989.26
2022-09-27T04:17:03.581Z,989.23
2022-09-27T04:18:03.491Z,989.23
2022-09-27T04:19:03.493Z,989.26
2022-09-27T04:20:03.467Z,989.26
2022-09-27T04:21:03.462Z,989.20
2022-09-27T04:22:03.494Z,989.22
2022-09-27T04:23:03.435Z,989.21
2022-09-27T04:24:03.437Z,989.19
2022-09-27T04:25:03.416Z,989.19
2022-09-27T04:26:03.409Z,989.23
2022-09-27T04:27:03.404Z,989.23
2022-09-27T04:28:03.386Z,989.22
2022-09-27T04:29:03.420Z,989.20
2022-09-27T04:30:03.360Z,989.24
2022-09-27T04:31:03.475Z,989.24
2022-09-27T04:32:03.336Z,989.17
2022-09-27T04:33:03.326Z,989.23
2022-09-27T04:34:03.330Z,989.21
2022-09-27T04:35:03.304Z,989.25
2022-09-27T04:36:03.294Z,989.22
2022-09-27T04:37:03.283Z,989.19
2022-09-27T04:38:03.352Z,989.22
2022-09-27T04:39:03.270Z,989.21
2022-09-27T04:40:03.258Z,989.17
2022-09-27T04:41:03.344Z,989.18
2022-09-27T04:42:03.232Z,989.22
2022-09-27T04:43:03.221Z,989.20
2022-09-27T04:44:03.217Z,989.20
2022-09-27T04:45:03.212Z,989.21
2022-09-27T04:46:03.236Z,989.27
2022-09-27T04:47:03.179Z,989.19
2022-09-27T04:48:03.167Z,989.21
2022-09-27T04:49:03.174Z,989.22
2022-09-27T04:50:03.141Z,989.22
2022-09-27T04:51:03.141Z,989.19
2022-09-27T04:52:03.122Z,989.18
2022-09-27T04:53:03.107Z,989.22
2022-09-27T04:54:03.114Z,989.14
2022-09-27T04:55:03.085Z,989.21
2022-09-27T04:56:03.076Z,989.31
2022-09-27T04:57:03.062Z,989.25
2022-09-27T04:58:03.065Z,989.28
2022-09-27T04:59:07.011Z,989.26
2022-09-27T05:00:04.033Z,989.27
2022-09-27T05:01:03.095Z,989.25
2022-09-27T05:02:03.094Z,989.30
2022-09-27T05:03:03.053Z,989.27
2022-09-27T05:04:03.000Z,989.28
2022-09-27T05:05:02.986Z,989.27
2022-09-27T05:06:02.972Z,989.24
2022-09-27T05:07:02.982Z,989.27
2022-09-27T05:08:02.942Z,989.24
2022-09-27T05:09:02.942Z,989.21
2022-09-27T05:10:02.926Z,989.24
2022-09-27T05:11:02.910Z,989.24
2022-09-27T05:12:02.900Z,989.25
2022-09-27T05:13:02.888Z,989.23
2022-09-27T05:14:02.886Z,989.27
2022-09-27T05:15:02.884Z,989.27
2022-09-27T05:16:02.866Z,989.27
2022-09-27T05:17:02.914Z,989.29
2022-09-27T05:18:02.837Z,989.28
2022-09-27T05:19:02.834Z,989.25
2022-09-27T05:20:02.823Z,989.27
2022-09-27T05:21:02.800Z,989.25
2022-09-27T05:22:02.801Z,989.24
2022-09-27T05:23:02.779Z,989.22
2022-09-27T05:24:02.778Z,989.20
2022-09-27T05:25:02.756Z,989.25
2022-09-27T05:26:02.748Z,989.22
2022-09-27T05:27:02.746Z,989.24
2022-09-27T05:28:02.727Z,989.26
2022-09-27T05:29:02.810Z,989.20
2022-09-27T05:30:02.704Z,989.20
2022-09-27T05:31:02.796Z,989.24
2022-09-27T05:32:02.683Z,989.24
2022-09-27T05:33:02.686Z,989.24
2022-09-27T05:34:02.719Z,989.29
2022-09-27T05:35:02.655Z,989.27
2022-09-27T05:36:02.638Z,989.28
2022-09-27T05:37:02.629Z,989.27
2022-09-27T05:38:02.617Z,989.25
2022-09-27T05:39:02.614Z,989.22
2022-09-27T05:40:16.897Z,989.24
2022-09-27T05:41:03.632Z,989.23
2022-09-27T05:42:02.573Z,989.30
2022-09-27T05:43:02.559Z,989.30
2022-09-27T05:44:02.560Z,989.25
2022-09-27T05:45:02.541Z,989.28
2022-09-27T05:46:02.610Z,989.26
2022-09-27T05:47:02.581Z,989.27
2022-09-27T05:48:02.523Z,989.29
2022-09-27T05:49:02.526Z,989.29
2022-09-27T05:50:02.482Z,989.22
2022-09-27T05:51:02.481Z,989.28
2022-09-27T05:52:02.463Z,989.28
2022-09-27T05:53:02.448Z,989.27
2022-09-27T05:54:02.440Z,989.29
2022-09-27T05:55:02.437Z,989.25
2022-09-27T05:56:02.515Z,989.25
2022-09-27T05:57:02.407Z,989.21
2022-09-27T05:58:02.395Z,989.24
2022-09-27T05:59:02.385Z,989.24
2022-09-27T06:00:02.398Z,989.19
2022-09-27T06:01:02.368Z,989.24
2022-09-27T06:02:02.452Z,989.25
2022-09-27T06:03:02.391Z,989.20
2022-09-27T06:04:02.333Z,989.26
2022-09-27T06:05:02.396Z,989.22
2022-09-27T06:06:02.310Z,989.24
2022-09-27T06:07:02.302Z,989.20
2022-09-27T06:08:02.285Z,989.21
2022-09-27T06:09:02.276Z,989.18
2022-09-27T06:10:02.274Z,989.16
2022-09-27T06:11:02.253Z,989.20
2022-09-27T06:12:02.245Z,989.22
2022-09-27T06:13:02.232Z,989.17
2022-09-27T06:14:02.228Z,989.16
2022-09-27T06:15:02.217Z,989.16
2022-09-27T06:16:02.199Z,989.20
2022-09-27T06:17:02.271Z,989.20
2022-09-27T06:18:02.177Z,989.17
2022-09-27T06:19:02.177Z,989.14
2022-09-27T06:20:02.169Z,989.16
2022-09-27T06:21:02.202Z,989.15
2022-09-27T06:22:02.136Z,989.18
2022-09-27T06:23:02.138Z,989.15
2022-09-27T06:24:02.158Z,989.18
2022-09-27T06:25:02.101Z,989.15
2022-09-27T06:26:02.089Z,989.15
2022-09-27T06:27:02.078Z,989.18
2022-09-27T06:28:02.070Z,989.19
2022-09-27T06:29:02.067Z,989.19
2022-09-27T06:30:02.054Z,989.14
2022-09-27T06:31:02.140Z,989.20
2022-09-27T06:32:02.024Z,989.21
2022-09-27T06:33:02.012Z,989.18
2022-09-27T06:34:02.016Z,989.16
2022-09-27T06:35:01.989Z,989.19
2022-09-27T06:36:01.983Z,989.23
2022-09-27T06:37:01.995Z,989.22
2022-09-27T06:38:01.987Z,989.22
2022-09-27T06:39:01.957Z,989.16
2022-09-27T06:40:02.841Z,989.16
2022-09-27T06:41:01.925Z,989.24
2022-09-27T06:42:01.918Z,989.20
2022-09-27T06:43:01.903Z,989.21
2022-09-27T06:44:01.908Z,989.22
2022-09-27T06:45:01.879Z,989.21
2022-09-27T06:46:01.929Z,989.20
2022-09-27T06:47:01.858Z,989.23
2022-09-27T06:48:01.848Z,989.22
2022-09-27T06:49:01.846Z,989.18
2022-09-27T06:50:01.828Z,989.20
2022-09-27T06:51:01.814Z,989.24
2022-09-27T06:52:01.803Z,989.24
2022-09-27T06:53:01.818Z,989.25
2022-09-27T06:54:01.799Z,989.23
2022-09-27T06:55:01.771Z,989.20
2022-09-27T06:56:01.764Z,989.23
2022-09-27T06:57:02.814Z,989.23
2022-09-27T06:58:01.795Z,989.22
2022-09-27T06:59:01.741Z,989.20
2022-09-27T07:00:01.726Z,989.19
2022-09-27T07:01:01.796Z,989.33
2022-09-27T07:02:01.742Z,989.24
2022-09-27T07:03:01.700Z,989.27
2022-09-27T07:04:01.686Z,989.25
2022-09-27T07:05:01.713Z,989.32
2022-09-27T07:06:01.652Z,989.30
2022-09-27T07:07:01.662Z,989.30
2022-09-27T07:08:01.634Z,989.27
2022-09-27T07:09:01.649Z,989.28
2022-09-27T07:10:03.364Z,989.30
2022-09-27T07:11:01.596Z,989.28
2022-09-27T07:12:01.624Z,989.27
2022-09-27T07:13:01.579Z,989.28
2022-09-27T07:14:01.576Z,989.25
2022-09-27T07:15:01.553Z,989.25
2022-09-27T07:16:01.546Z,989.21
2022-09-27T07:17:01.552Z,989.23
2022-09-27T07:18:01.522Z,989.22
2022-09-27T07:19:01.523Z,989.21
2022-09-27T07:20:02.251Z,989.22
2022-09-27T07:21:01.485Z,989.22
2022-09-27T07:22:01.477Z,989.21
2022-09-27T07:23:01.464Z,989.23
2022-09-27T07:24:01.470Z,989.28
2022-09-27T07:25:01.460Z,989.19
2022-09-27T07:26:01.452Z,989.26
2022-09-27T07:27:01.422Z,989.29
2022-09-27T07:28:02.637Z,989.26
2022-09-27T07:29:01.410Z,989.29
2022-09-27T07:30:01.393Z,989.30
2022-09-27T07:31:01.449Z,989.29
2022-09-27T07:32:01.374Z,989.27
2022-09-27T07:33:01.357Z,989.33
2022-09-27T07:34:01.353Z,989.31
2022-09-27T07:35:01.333Z,989.29
2022-09-27T07:36:01.324Z,989.32
2022-09-27T07:37:01.310Z,989.29
2022-09-27T07:38:01.324Z,989.27
2022-09-27T07:39:01.299Z,989.30
2022-09-27T07:40:01.277Z,989.30
2022-09-27T07:41:01.349Z,989.28
2022-09-27T07:42:01.257Z,989.29
2022-09-27T07:43:01.244Z,989.27
2022-09-27T07:44:01.255Z,989.25
2022-09-27T07:45:01.226Z,989.22
2022-09-27T07:46:01.250Z,989.22
2022-09-27T07:47:01.201Z,989.26
2022-09-27T07:48:01.191Z,989.25
2022-09-27T07:49:01.189Z,989.28
2022-09-27T07:50:01.170Z,989.29
2022-09-27T07:51:01.159Z,989.27
2022-09-27T07:52:01.157Z,989.25
2022-09-27T07:53:01.141Z,989.22
2022-09-27T07:54:04.173Z,989.19
2022-09-27T07:55:02.115Z,989.22
2022-09-27T07:56:01.107Z,989.21
2022-09-27T07:57:01.111Z,989.23
2022-09-27T07:58:01.080Z,989.24
2022-09-27T07:59:01.081Z,989.26
2022-09-27T08:00:01.061Z,989.20
2022-09-27T08:01:01.100Z,989.26
2022-09-27T08:02:01.072Z,989.24
2022-09-27T08:03:01.034Z,989.25
2022-09-27T08:04:01.030Z,989.26
2022-09-27T08:05:01.009Z,989.26
2022-09-27T08:06:00.993Z,989.28
2022-09-27T08:07:00.983Z,989.34
2022-09-27T08:08:00.971Z,989.35
2022-09-27T08:09:00.975Z,989.36
2022-09-27T08:10:00.952Z,989.41
2022-09-27T08:11:00.943Z,989.41
2022-09-27T08:12:00.943Z,989.41
2022-09-27T08:13:00.942Z,989.35
2022-09-27T08:14:00.915Z,989.39
2022-09-27T08:15:00.898Z,989.35
2022-09-27T08:16:00.909Z,989.31
2022-09-27T08:17:00.878Z,989.30
2022-09-27T08:18:00.863Z,989.26
2022-09-27T08:19:00.867Z,989.31
2022-09-27T08:20:00.838Z,989.27
2022-09-27T08:21:00.830Z,989.33
2022-09-27T08:22:00.821Z,989.29
2022-09-27T08:23:00.823Z,989.34
2022-09-27T08:24:00.802Z,989.37
2022-09-27T08:25:00.787Z,989.36
2022-09-27T08:26:00.784Z,989.33
2022-09-27T08:27:00.766Z,989.40
2022-09-27T08:28:00.757Z,989.38
2022-09-27T08:29:00.776Z,989.33
2022-09-27T08:30:00.757Z,989.36
2022-09-27T08:31:00.723Z,989.30
2022-09-27T08:32:00.757Z,989.34
2022-09-27T08:33:00.728Z,989.33
2022-09-27T08:34:00.696Z,989.31
2022-09-27T08:35:00.698Z,989.35
2022-09-27T08:36:00.665Z,989.33
2022-09-27T08:37:00.656Z,989.41
2022-09-27T08:38:00.722Z,989.39
2022-09-27T08:39:00.645Z,989.45
2022-09-27T08:40:00.658Z,989.37
2022-09-27T08:41:00.613Z,989.40
2022-09-27T08:42:00.600Z,989.39
2022-09-27T08:43:00.604Z,989.37
2022-09-27T08:44:00.588Z,989.38
2022-09-27T08:45:03.335Z,989.36
2022-09-27T08:46:00.667Z,989.40
2022-09-27T08:47:00.548Z,989.36
2022-09-27T08:48:00.551Z,989.41
2022-09-27T08:49:00.527Z,989.42
2022-09-27T08:50:00.515Z,989.39
2022-09-27T08:51:00.571Z,989.43
2022-09-27T08:52:00.495Z,989.45
2022-09-27T08:53:00.494Z,989.45
2022-09-27T08:54:00.472Z,989.43
2022-09-27T08:55:00.462Z,989.45
2022-09-27T08:56:00.448Z,989.46
2022-09-27T08:57:00.438Z,989.48
2022-09-27T08:58:00.462Z,989.45
2022-09-27T08:59:00.416Z,989.45
2022-09-27T09:00:00.419Z,989.45
2022-09-27T09:01:00.512Z,989.42
2022-09-27T09:02:00.460Z,989.47
2022-09-27T09:03:00.381Z,989.44
2022-09-27T09:04:00.426Z,989.43
2022-09-27T09:05:00.350Z,989.37
2022-09-27T09:06:00.342Z,989.37
2022-09-27T09:07:00.330Z,989.39
2022-09-27T09:08:00.331Z,989.40
2022-09-27T09:09:00.308Z,989.37
2022-09-27T09:10:00.295Z,989.42
2022-09-27T09:11:00.288Z,989.41
2022-09-27T09:12:00.277Z,989.43
2022-09-27T09:13:00.277Z,989.40
2022-09-27T09:14:00.252Z,989.42
2022-09-27T09:15:00.251Z,989.35
2022-09-27T09:16:00.232Z,989.33
2022-09-27T09:17:00.255Z,989.35
2022-09-27T09:18:00.229Z,989.34
2022-09-27T09:19:00.200Z,989.34
2022-09-27T09:20:00.201Z,989.35
2022-09-27T09:21:00.250Z,989.39
2022-09-27T09:22:00.168Z,989.37
2022-09-27T09:23:00.169Z,989.34
2022-09-27T09:24:00.149Z,989.31
2022-09-27T09:25:00.134Z,989.35
2022-09-27T09:26:00.155Z,989.36
2022-09-27T09:27:00.118Z,989.34
2022-09-27T09:28:02.388Z,989.35
2022-09-27T09:29:00.104Z,989.32
2022-09-27T09:30:00.127Z,989.34
2022-09-27T09:31:00.087Z,989.32
2022-09-27T09:32:00.101Z,989.36
2022-09-27T09:33:00.097Z,989.34
2022-09-27T09:34:00.041Z,989.31
2022-09-27T09:35:00.025Z,989.33
2022-09-27T09:36:00.016Z,989.34
2022-09-27T09:37:00.002Z,989.34
2022-09-27T09:38:00.025Z,989.35
2022-09-27T09:38:59.981Z,989.36
2022-09-27T09:39:59.969Z,989.38
2022-09-27T09:40:59.958Z,989.39
2022-09-27T09:41:59.948Z,989.33
2022-09-27T09:42:59.951Z,989.28
2022-09-27T09:43:59.925Z,989.32
2022-09-27T09:44:59.916Z,989.31
2022-09-27T09:45:59.949Z,989.30
2022-09-27T09:46:59.898Z,989.34
2022-09-27T09:47:59.906Z,989.36
2022-09-27T09:48:59.973Z,989.35
2022-09-27T09:49:59.863Z,989.33
2022-09-27T09:50:59.852Z,989.35
2022-09-27T09:51:59.841Z,989.39
2022-09-27T09:52:59.840Z,989.33
2022-09-27T09:53:59.819Z,989.27
2022-09-27T09:54:59.809Z,989.26
2022-09-27T09:55:59.797Z,989.35
2022-09-27T09:56:59.788Z,989.27
2022-09-27T09:57:59.785Z,989.28
2022-09-27T09:58:59.766Z,989.33
2022-09-27T09:59:59.755Z,989.27
2022-09-27T10:00:59.790Z,989.28
2022-09-27T10:01:59.790Z,989.27
2022-09-27T10:02:59.736Z,989.22
2022-09-27T10:03:59.712Z,989.23
2022-09-27T10:05:03.887Z,989.18
2022-09-27T10:06:00.685Z,989.20
2022-09-27T10:06:59.681Z,989.20
2022-09-27T10:07:59.675Z,989.21
2022-09-27T10:08:59.656Z,989.21
2022-09-27T10:09:59.647Z,989.20
2022-09-27T10:10:59.666Z,989.17
2022-09-27T10:11:59.635Z,989.21
2022-09-27T10:12:59.614Z,989.19
2022-09-27T10:13:59.604Z,989.15
2022-09-27T10:14:59.592Z,989.10
2022-09-27T10:15:59.623Z,989.11
2022-09-27T10:16:59.577Z,989.15
2022-09-27T10:17:59.557Z,989.15
2022-09-27T10:18:59.550Z,989.21
2022-09-27T10:19:59.540Z,989.19
2022-09-27T10:20:59.545Z,989.22
2022-09-27T10:21:59.521Z,989.16
2022-09-27T10:22:59.506Z,989.19
2022-09-27T10:23:59.490Z,989.21
2022-09-27T10:24:59.484Z,989.17
2022-09-27T10:25:59.472Z,989.27
2022-09-27T10:26:59.462Z,989.21
2022-09-27T10:27:59.461Z,989.18
2022-09-27T10:28:59.439Z,989.21
2022-09-27T10:29:59.427Z,989.19
2022-09-27T10:30:59.417Z,989.16
2022-09-27T10:31:59.427Z,989.16
2022-09-27T10:32:59.404Z,989.17
2022-09-27T10:33:59.382Z,989.14
2022-09-27T10:34:59.374Z,989.13
2022-09-27T10:35:59.388Z,989.10
2022-09-27T10:36:59.376Z,989.10
2022-09-27T10:37:59.351Z,989.10
2022-09-27T10:38:59.340Z,989.12
2022-09-27T10:39:59.360Z,989.08
2022-09-27T10:40:59.384Z,989.11
2022-09-27T10:41:59.299Z,989.09
2022-09-27T10:42:59.297Z,989.07
2022-09-27T10:43:59.272Z,989.09
2022-09-27T10:44:59.265Z,989.07
2022-09-27T10:45:59.311Z,989.08
2022-09-27T10:46:59.255Z,989.04
2022-09-27T10:47:59.264Z,989.11
2022-09-27T10:48:59.221Z,989.04
2022-09-27T10:49:59.206Z,989.07
2022-09-27T10:50:59.624Z,989.06
2022-09-27T10:51:59.201Z,989.07
2022-09-27T10:52:59.209Z,989.04
2022-09-27T10:53:59.163Z,989.01
2022-09-27T10:54:59.154Z,988.99
2022-09-27T10:55:59.144Z,988.94
2022-09-27T10:56:59.145Z,988.90
2022-09-27T10:57:59.122Z,988.92
2022-09-27T10:58:59.111Z,988.93
2022-09-27T10:59:59.102Z,989.00
2022-09-27T11:00:59.229Z,988.95
2022-09-27T11:01:59.107Z,988.99
2022-09-27T11:02:59.068Z,988.95
2022-09-27T11:03:59.056Z,988.95
2022-09-27T11:04:59.062Z,988.96
2022-09-27T11:05:59.035Z,988.97
2022-09-27T11:06:59.037Z,988.98
2022-09-27T11:07:59.031Z,988.99
2022-09-27T11:08:59.057Z,988.94
2022-09-27T11:09:58.989Z,988.98
2022-09-27T11:10:58.984Z,988.97
2022-09-27T11:11:58.990Z,988.93
2022-09-27T11:12:58.963Z,988.98
2022-09-27T11:13:58.947Z,988.95
2022-09-27T11:14:58.937Z,988.98
2022-09-27T11:15:58.964Z,988.99
2022-09-27T11:16:58.915Z,988.93
2022-09-27T11:17:58.919Z,988.93
2022-09-27T11:18:58.899Z,988.99
2022-09-27T11:19:58.881Z,989.00
2022-09-27T11:20:58.884Z,988.99
2022-09-27T11:21:58.875Z,989.02
2022-09-27T11:22:58.889Z,989.02
2022-09-27T11:23:58.841Z,989.03
2022-09-27T11:24:58.855Z,989.06
2022-09-27T11:25:58.817Z,989.08
2022-09-27T11:26:58.831Z,989.02
2022-09-27T11:27:58.800Z,988.99
2022-09-27T11:28:58.785Z,988.98
2022-09-27T11:29:58.773Z,989.01
2022-09-27T11:30:58.763Z,989.06
2022-09-27T11:31:58.807Z,989.07
2022-09-27T11:32:58.792Z,989.06
2022-09-27T11:33:58.729Z,989.10
2022-09-27T11:34:58.724Z,989.05
2022-09-27T11:35:58.707Z,989.13
2022-09-27T11:36:58.706Z,989.09
2022-09-27T11:37:58.696Z,989.03
2022-09-27T11:39:02.474Z,989.04
2022-09-27T11:39:58.700Z,989.03
2022-09-27T11:40:58.673Z,989.04
2022-09-27T11:41:58.652Z,989.09
2022-09-27T11:42:58.653Z,989.07
2022-09-27T11:43:58.620Z,989.14
2022-09-27T11:45:19.911Z,989.14
2022-09-27T11:46:19.194Z,989.18
2022-09-27T11:46:59.692Z,989.24
2022-09-27T11:47:58.703Z,989.33
2022-09-27T11:48:58.592Z,989.41
2022-09-27T11:49:58.554Z,989.41
2022-09-27T11:50:58.547Z,989.45
2022-09-27T11:51:58.547Z,989.41
2022-09-27T11:52:58.528Z,989.41
2022-09-27T11:53:58.513Z,989.39
2022-09-27T11:54:58.505Z,989.39
2022-09-27T11:55:58.492Z,989.44
2022-09-27T11:56:58.508Z,989.46
2022-09-27T11:57:58.465Z,989.50
2022-09-27T11:58:58.458Z,989.55
2022-09-27T11:59:58.445Z,989.53
2022-09-27T12:00:58.435Z,989.56
2022-09-27T12:01:58.497Z,989.53
2022-09-27T12:02:58.474Z,989.52
2022-09-27T12:03:58.404Z,989.56
2022-09-27T12:04:58.404Z,989.58
2022-09-27T12:06:00.576Z,989.57
2022-09-27T12:06:58.403Z,989.66
2022-09-27T12:07:58.379Z,989.66
2022-09-27T12:08:58.348Z,989.62
2022-09-27T12:09:58.344Z,989.63
2022-09-27T12:10:58.334Z,989.61
2022-09-27T12:11:58.328Z,989.63
2022-09-27T12:12:58.328Z,989.63
2022-09-27T12:13:58.295Z,989.66
2022-09-27T12:15:01.743Z,989.66
2022-09-27T12:15:59.389Z,989.65
2022-09-27T12:16:58.270Z,989.67
2022-09-27T12:17:58.251Z,989.63
2022-09-27T12:18:58.241Z,989.66
2022-09-27T12:19:58.235Z,989.67
2022-09-27T12:20:58.220Z,989.66
2022-09-27T12:21:58.220Z,989.70
2022-09-27T12:22:59.872Z,989.69
2022-09-27T12:23:58.188Z,989.69
2022-09-27T12:24:58.173Z,989.68
2022-09-27T12:25:58.165Z,989.67
2022-09-27T12:26:58.162Z,989.62
2022-09-27T12:27:58.145Z,989.64